createdAt,value
2023-05-10T00:02:07.035Z,99988.38
2023-05-10T00:04:36.866Z,99984.91
2023-05-10T00:07:04.675Z,99989.66
2023-05-10T00:09:32.997Z,99986.19
2023-05-10T00:12:01.373Z,99997.94
2023-05-10T00:14:29.246Z,99997.38
2023-05-10T00:16:57.128Z,99988.00
2023-05-10T00:19:25.947Z,99988.00
2023-05-10T00:21:55.345Z,99982.13
2023-05-10T00:24:23.144Z,99990.13
2023-05-10T00:26:51.680Z,99996.50
2023-05-10T00:29:19.492Z,99995.69
2023-05-10T00:31:47.326Z,99996.50
2023-05-10T00:34:15.623Z,99993.03
2023-05-10T00:36:43.553Z,99987.97
2023-05-10T00:39:13.686Z,99985.81
2023-05-10T00:41:41.962Z,99987.16
2023-05-10T00:44:10.036Z,99980.22
2023-05-10T00:46:37.883Z,99982.88
2023-05-10T00:49:06.629Z,99972.69
2023-05-10T00:51:34.670Z,99981.25
2023-05-10T00:54:02.662Z,99984.75
2023-05-10T00:56:33.362Z,99974.88
2023-05-10T00:59:02.131Z,99979.63
2023-05-10T01:01:30.805Z,99970.84
2023-05-10T01:03:59.690Z,99977.78
2023-05-10T01:06:27.489Z,99975.91
2023-05-10T01:08:55.566Z,99973.25
2023-05-10T01:14:14.570Z,99981.81
2023-05-10T01:16:44.963Z,99986.34
2023-05-10T01:19:19.365Z,99975.38
2023-05-10T01:21:55.507Z,99989.31
2023-05-10T01:24:48.822Z,99988.28
2023-05-10T01:27:26.533Z,99986.63
2023-05-10T01:30:37.610Z,99984.22
2023-05-10T01:33:13.527Z,99981.28
2023-05-10T01:35:45.134Z,99990.38
2023-05-10T01:38:20.086Z,99978.63
2023-05-10T01:40:58.597Z,99987.69
2023-05-10T01:43:33.639Z,99979.69
2023-05-10T01:46:11.221Z,99982.34
2023-05-10T01:48:48.827Z,99981.88
2023-05-10T01:51:21.796Z,99985.59
2023-05-10T01:53:52.299Z,99987.19
2023-05-10T01:56:26.092Z,99976.53
2023-05-10T01:58:55.493Z,99985.59
2023-05-10T02:01:24.293Z,99985.03
2023-05-10T02:03:54.139Z,99984.22
2023-05-10T02:06:24.684Z,99989.56
2023-05-10T02:08:54.241Z,99989.25
2023-05-10T02:11:23.029Z,99989.03
2023-05-10T02:13:53.014Z,99992.50
2023-05-10T02:16:25.755Z,99989.56
2023-05-10T02:18:56.398Z,99991.69
2023-05-10T02:21:26.113Z,99995.16
2023-05-10T02:23:56.896Z,99994.03
2023-05-10T02:26:27.030Z,99999.69
2023-05-10T02:28:56.393Z,100000.50
2023-05-10T02:31:25.801Z,100011.97
2023-05-10T02:33:56.495Z,100006.38
2023-05-10T02:36:25.254Z,100006.38
2023-05-10T02:38:55.475Z,100008.25
2023-05-10T02:41:25.068Z,100012.50
2023-05-10T02:43:52.935Z,100018.16
2023-05-10T02:46:21.695Z,100011.16
2023-05-10T02:48:49.553Z,100013.84
2023-05-10T02:51:21.407Z,100019.19
2023-05-10T02:53:51.945Z,100009.25
2023-05-10T02:56:27.093Z,100015.88
2023-05-10T02:58:55.432Z,100016.41
2023-05-10T03:01:23.469Z,100017.94
2023-05-10T03:03:51.337Z,100019.00
2023-05-10T03:06:20.939Z,100018.44
2023-05-10T03:08:48.655Z,100012.59
2023-05-10T03:11:40.465Z,100017.41
2023-05-10T03:14:22.682Z,100021.09
2023-05-10T03:16:59.367Z,100016.81
2023-05-10T03:19:32.336Z,100022.69
2023-05-10T03:22:06.332Z,100020.50
2023-05-10T03:24:37.619Z,100028.50
2023-05-10T03:27:06.866Z,100029.50
2023-05-10T03:29:35.857Z,100027.06
2023-05-10T03:32:03.879Z,100031.38
2023-05-10T03:34:33.525Z,100033.22
2023-05-10T03:37:02.456Z,100034.78
2023-05-10T03:39:30.254Z,100043.63
2023-05-10T03:41:58.572Z,100044.38
2023-05-10T03:44:26.372Z,100046.50
2023-05-10T03:46:54.334Z,100041.66
2023-05-10T03:49:22.680Z,100049.66
2023-05-10T03:51:50.811Z,100044.78
2023-05-10T03:54:19.926Z,100047.97
2023-05-10T03:56:49.516Z,100052.25
2023-05-10T03:59:17.070Z,100053.94
2023-05-10T04:01:44.845Z,100051.00
2023-05-10T04:04:13.359Z,100053.44
2023-05-10T04:06:41.296Z,100052.38
2023-05-10T04:09:09.347Z,100054.25
2023-05-10T04:11:39.008Z,100050.78
2023-05-10T04:14:06.598Z,100055.59
2023-05-10T04:16:34.431Z,100055.59
2023-05-10T04:19:02.729Z,100055.84
2023-05-10T04:21:30.574Z,100044.38
2023-05-10T04:23:58.342Z,100051.84
2023-05-10T04:26:27.211Z,100051.25
2023-05-10T04:28:56.381Z,100057.16
2023-05-10T04:31:24.149Z,100056.34
2023-05-10T04:33:52.550Z,100059.25
2023-05-10T04:36:20.402Z,100056.34
2023-05-10T04:38:48.199Z,100058.19
2023-05-10T04:41:16.624Z,100060.06
2023-05-10T04:43:44.389Z,100055.53
2023-05-10T04:46:13.591Z,100064.09
2023-05-10T04:48:41.953Z,100062.25
2023-05-10T04:51:09.769Z,100064.66
2023-05-10T04:53:37.556Z,100063.59
2023-05-10T04:56:06.455Z,100065.72
2023-05-10T04:58:34.385Z,100073.97
2023-05-10T05:01:07.919Z,100079.13
2023-05-10T05:03:37.118Z,100072.97
2023-05-10T05:06:05.670Z,100079.59
2023-05-10T05:08:33.992Z,100078.78
2023-05-10T05:11:01.747Z,100079.84
2023-05-10T05:13:29.606Z,100080.91
2023-05-10T05:15:58.137Z,100089.66
2023-05-10T05:18:26.170Z,100091.25
2023-05-10T05:20:55.254Z,100093.94
2023-05-10T05:23:26.168Z,100098.72
2023-05-10T05:25:54.527Z,100104.53
2023-05-10T05:28:23.412Z,100106.38
2023-05-10T05:30:51.807Z,100110.66
2023-05-10T05:33:19.580Z,100114.38
2023-05-10T05:35:51.592Z,100114.56
2023-05-10T05:38:21.237Z,100121.50
2023-05-10T05:40:48.778Z,100125.06
2023-05-10T05:43:16.515Z,100120.78
2023-05-10T05:45:44.710Z,100127.97
2023-05-10T05:48:12.474Z,100129.59
2023-05-10T05:50:40.235Z,100122.88
2023-05-10T05:53:08.534Z,100134.38
2023-05-10T05:55:37.666Z,100137.03
2023-05-10T05:58:05.525Z,100138.06
2023-05-10T06:00:33.845Z,100141.06
2023-05-10T06:03:01.767Z,100150.91
2023-05-10T06:05:29.666Z,100146.66
2023-05-10T06:07:58.160Z,100143.16
2023-05-10T06:10:26.451Z,100142.38
2023-05-10T06:12:55.833Z,100152.19
2023-05-10T06:15:24.225Z,100151.91
2023-05-10T06:17:52.202Z,100159.28
2023-05-10T06:20:20.165Z,100157.69
2023-05-10T06:22:48.452Z,100162.94
2023-05-10T06:25:18.960Z,100170.31
2023-05-10T06:27:52.865Z,100164.63
2023-05-10T06:30:24.077Z,100169.16
2023-05-10T06:32:52.553Z,100168.56
2023-05-10T06:35:20.403Z,100168.81
2023-05-10T06:37:48.529Z,100171.41
2023-05-10T06:40:16.547Z,100173.59
2023-05-10T06:42:45.936Z,100173.34
2023-05-10T06:45:14.306Z,100176.03
2023-05-10T06:47:44.463Z,100180.78
2023-05-10T06:50:13.301Z,100176.50
2023-05-10T06:52:41.274Z,100187.41
2023-05-10T06:55:11.051Z,100179.16
2023-05-10T06:57:38.918Z,100178.13
2023-05-10T07:00:08.155Z,100185.53
2023-05-10T07:02:36.367Z,100185.00
2023-05-10T07:05:06.131Z,100188.22
2023-05-10T07:07:34.034Z,100188.22
2023-05-10T07:10:02.261Z,100189.25
2023-05-10T07:12:30.060Z,100190.66
2023-05-10T07:14:57.881Z,100192.47
2023-05-10T07:17:26.708Z,100202.13
2023-05-10T07:19:54.668Z,100203.16
2023-05-10T07:22:23.821Z,100208.47
2023-05-10T07:24:51.899Z,100207.44
2023-05-10T07:27:19.916Z,100208.00
2023-05-10T07:29:47.724Z,100205.09
2023-05-10T07:32:15.703Z,100209.88
2023-05-10T07:34:43.646Z,100217.63
2023-05-10T07:37:11.486Z,100216.47
2023-05-10T07:39:41.027Z,100218.13
2023-05-10T07:42:09.285Z,100217.88
2023-05-10T07:44:37.097Z,100221.81
2023-05-10T07:47:04.963Z,100226.81
2023-05-10T07:49:32.741Z,100230.28
2023-05-10T07:52:00.523Z,100232.16
2023-05-10T07:54:28.877Z,100228.09
2023-05-10T07:56:58.170Z,100238.75
2023-05-10T07:59:26.106Z,100237.50
2023-05-10T08:01:54.406Z,100231.09
2023-05-10T08:04:22.446Z,100242.81
2023-05-10T08:06:50.340Z,100245.69
2023-05-10T08:09:19.150Z,100241.75
2023-05-10T08:11:46.928Z,100243.63
2023-05-10T08:14:16.060Z,100246.63
2023-05-10T08:16:44.085Z,100250.66
2023-05-10T08:19:11.946Z,100237.50
2023-05-10T08:21:41.425Z,100253.66
2023-05-10T08:24:09.760Z,100238.94
2023-05-10T08:26:37.531Z,100260.94
2023-05-10T08:29:06.561Z,100262.56
2023-05-10T08:31:36.234Z,100263.09
2023-05-10T08:34:04.098Z,100260.44
2023-05-10T08:36:33.126Z,100261.25
2023-05-10T08:39:01.486Z,100264.50
2023-05-10T08:41:29.863Z,100265.31
2023-05-10T08:43:57.743Z,100273.84
2023-05-10T08:46:26.091Z,100269.34
2023-05-10T08:48:56.853Z,100277.13
2023-05-10T08:51:27.904Z,100276.06
2023-05-10T08:53:56.313Z,100280.34
2023-05-10T08:56:25.038Z,100276.63
2023-05-10T08:58:53.236Z,100278.28
2023-05-10T09:01:22.356Z,100279.91
2023-05-10T09:03:51.264Z,100283.63
2023-05-10T09:06:21.293Z,100276.31
2023-05-10T09:08:49.603Z,100286.84
2023-05-10T09:11:18.185Z,100299.13
2023-05-10T09:13:47.229Z,100295.41
2023-05-10T09:18:48.512Z,100299.91
2023-05-10T09:21:16.494Z,100299.13
2023-05-10T09:23:48.703Z,100300.25
2023-05-10T09:26:17.073Z,100310.38
2023-05-10T09:28:55.489Z,100310.59
2023-05-10T09:31:23.572Z,100313.50
2023-05-10T09:33:52.602Z,100316.16
2023-05-10T09:36:20.767Z,100320.94
2023-05-10T09:38:51.829Z,100326.28
2023-05-10T09:41:21.483Z,100326.03
2023-05-10T09:43:49.113Z,100326.38
2023-05-10T09:46:17.827Z,100331.13
2023-05-10T09:48:47.510Z,100321.03
2023-05-10T09:51:20.770Z,100327.72
2023-05-10T09:53:51.897Z,100329.84
2023-05-10T09:56:35.024Z,100339.91
2023-05-10T09:59:06.634Z,100331.44
2023-05-10T10:01:35.241Z,100334.03
2023-05-10T10:04:06.011Z,100338.56
2023-05-10T10:06:38.874Z,100331.00
2023-05-10T10:09:09.180Z,100339.00
2023-05-10T10:11:38.420Z,100334.97
2023-05-10T10:14:06.704Z,100339.50
2023-05-10T10:16:34.980Z,100327.69
2023-05-10T10:19:03.270Z,100340.03
2023-05-10T10:21:32.275Z,100337.94
2023-05-10T10:24:00.047Z,100336.94
2023-05-10T10:26:29.640Z,100337.25
2023-05-10T10:29:02.637Z,100339.72
2023-05-10T10:31:36.791Z,100346.41
2023-05-10T10:34:09.490Z,100339.22
2023-05-10T10:36:42.763Z,100330.16
2023-05-10T10:39:13.217Z,100333.31
2023-05-10T10:41:50.991Z,100329.69
2023-05-10T10:44:27.377Z,100332.09
2023-05-10T10:47:06.973Z,100327.56
2023-05-10T10:49:35.363Z,100332.78
2023-05-10T10:52:17.143Z,100333.06
2023-05-10T10:54:52.550Z,100333.06
2023-05-10T10:57:26.204Z,100325.66
2023-05-10T10:59:54.631Z,100328.06
2023-05-10T11:02:36.360Z,100322.56
2023-05-10T11:05:46.179Z,100322.66
2023-05-10T11:08:22.861Z,100319.84
2023-05-10T11:11:08.216Z,100321.00
2023-05-10T11:13:42.174Z,100329.88
2023-05-10T11:16:16.302Z,100324.84
2023-05-10T11:18:55.169Z,100323.56
2023-05-10T11:21:23.344Z,100318.53
2023-05-10T11:23:52.592Z,100322.03
2023-05-10T11:26:24.505Z,100322.09
2023-05-10T11:28:56.287Z,100307.63
2023-05-10T11:31:28.216Z,100325.66
2023-05-10T11:33:57.404Z,100333.41
2023-05-10T11:36:29.550Z,100329.19
2023-05-10T11:38:58.358Z,100330.81
2023-05-10T11:41:27.024Z,100326.06
2023-05-10T11:43:57.865Z,100329.81
2023-05-10T11:46:27.643Z,100313.19
2023-05-10T11:48:58.952Z,100327.47
2023-05-10T11:51:27.825Z,100325.38
2023-05-10T11:53:57.205Z,100321.75
2023-05-10T11:56:27.654Z,100323.13
2023-05-10T11:58:58.367Z,100327.47
2023-05-10T12:01:27.416Z,100316.53
2023-05-10T12:04:00.286Z,100317.69
2023-05-10T12:06:30.411Z,100322.81
2023-05-10T12:08:58.380Z,100316.16
2023-05-10T12:11:28.785Z,100316.47
2023-05-10T12:13:58.486Z,100321.88
2023-05-10T12:16:27.770Z,100298.84
2023-05-10T12:18:59.385Z,100318.22
2023-05-10T12:21:27.934Z,100318.84
2023-05-10T12:23:57.380Z,100315.66
2023-05-10T12:26:28.271Z,100314.91
2023-05-10T12:29:13.363Z,100315.78
2023-05-10T12:31:52.865Z,100311.06
2023-05-10T12:34:29.268Z,100323.41
2023-05-10T12:36:57.611Z,100310.59
2023-05-10T12:39:25.949Z,100321.34
2023-05-10T12:41:54.379Z,100314.16
2023-05-10T12:44:24.238Z,100317.16
2023-05-10T12:46:52.192Z,100318.28
2023-05-10T12:49:20.616Z,100322.63
2023-05-10T12:51:49.070Z,100319.47
2023-05-10T12:54:17.012Z,100318.97
2023-05-10T12:56:45.432Z,100320.59
2023-05-10T12:59:13.770Z,100330.22
2023-05-10T13:01:43.312Z,100323.81
2023-05-10T13:04:11.046Z,100327.59
2023-05-10T13:06:39.574Z,100327.09
2023-05-10T13:09:08.093Z,100329.78
2023-05-10T13:11:36.169Z,100324.69
2023-05-10T13:14:04.887Z,100322.31
2023-05-10T13:16:33.120Z,100327.41
2023-05-10T13:19:02.465Z,100328.78
2023-05-10T13:21:31.029Z,100331.78
2023-05-10T13:23:59.165Z,100331.50
2023-05-10T13:26:27.265Z,100336.34
2023-05-10T13:28:57.084Z,100332.09
2023-05-10T13:31:25.038Z,100334.81
2023-05-10T13:33:53.314Z,100340.47
2023-05-10T13:36:24.356Z,100341.56
2023-05-10T13:38:52.186Z,100341.03
2023-05-10T13:41:20.389Z,100340.28
2023-05-10T13:43:50.162Z,100339.25
2023-05-10T13:46:18.131Z,100337.09
2023-05-10T13:48:46.023Z,100332.28
2023-05-10T13:51:14.906Z,100335.25
2023-05-10T13:53:44.347Z,100332.31
2023-05-10T13:56:12.320Z,100332.59
2023-05-10T13:58:40.308Z,100336.06
2023-05-10T14:01:08.702Z,100334.44
2023-05-10T14:03:36.556Z,100334.72
2023-05-10T14:06:04.624Z,100336.03
2023-05-10T14:08:32.413Z,100333.34
2023-05-10T14:11:01.549Z,100334.97
2023-05-10T14:13:29.847Z,100331.75
2023-05-10T14:15:57.672Z,100327.47
2023-05-10T14:18:25.532Z,100327.47
2023-05-10T14:20:53.387Z,100326.38
2023-05-10T14:23:24.949Z,100324.50
2023-05-10T14:25:52.886Z,100329.59
2023-05-10T14:28:23.821Z,100329.59
2023-05-10T14:30:51.847Z,100330.13
2023-05-10T14:33:20.164Z,100324.78
2023-05-10T14:35:48.334Z,100333.88
2023-05-10T14:38:16.224Z,100333.31
2023-05-10T14:40:44.340Z,100332.78
2023-05-10T14:43:12.321Z,100333.84
2023-05-10T14:45:41.588Z,100332.47
2023-05-10T14:48:13.517Z,100337.03
2023-05-10T14:50:41.783Z,100343.13
2023-05-10T14:53:09.719Z,100336.97
2023-05-10T14:55:38.105Z,100335.91
2023-05-10T14:58:06.111Z,100333.50
2023-05-10T15:00:34.199Z,100333.25
2023-05-10T15:03:04.792Z,100338.06
2023-05-10T15:05:33.097Z,100334.81
2023-05-10T15:08:01.304Z,100335.59
2023-05-10T15:10:29.441Z,100335.34
2023-05-10T15:12:57.254Z,100339.59
2023-05-10T15:15:25.699Z,100336.91
2023-05-10T15:17:54.027Z,100345.69
2023-05-10T15:20:23.514Z,100346.44
2023-05-10T15:22:51.781Z,100349.59
2023-05-10T15:25:20.299Z,100349.34
2023-05-10T15:27:48.245Z,100348.50
2023-05-10T15:30:16.613Z,100348.50
2023-05-10T15:32:44.923Z,100348.69
2023-05-10T15:35:12.800Z,100345.19
2023-05-10T15:37:42.170Z,100353.22
2023-05-10T15:40:11.209Z,100346.81
2023-05-10T15:42:39.059Z,100348.13
2023-05-10T15:45:08.133Z,100351.63
2023-05-10T15:47:36.363Z,100361.22
2023-05-10T15:50:04.639Z,100357.47
2023-05-10T15:52:32.610Z,100364.94
2023-05-10T15:55:02.205Z,100365.25
2023-05-10T15:57:29.963Z,100365.50
2023-05-10T15:59:58.209Z,100368.16
2023-05-10T16:02:26.517Z,100358.53
2023-05-10T16:04:54.425Z,100358.53
2023-05-10T16:07:22.358Z,100370.84
2023-05-10T16:09:50.853Z,100366.56
2023-05-10T16:12:20.143Z,100355.38
2023-05-10T16:14:48.193Z,100363.66
2023-05-10T16:17:16.517Z,100361.84
2023-05-10T16:19:44.603Z,100367.47
2023-05-10T16:22:12.661Z,100366.16
2023-05-10T16:24:40.812Z,100370.19
2023-05-10T16:27:08.574Z,100359.47
2023-05-10T16:29:38.018Z,100364.34
2023-05-10T16:32:06.462Z,100365.94
2023-05-10T16:34:34.291Z,100368.63
2023-05-10T16:37:02.150Z,100371.59
2023-05-10T16:39:30.134Z,100377.50
2023-05-10T16:41:58.206Z,100374.81
2023-05-10T16:44:26.253Z,100373.53
2023-05-10T16:46:56.402Z,100375.63
2023-05-10T16:49:26.135Z,100382.34
2023-05-10T16:51:54.246Z,100380.22
2023-05-10T16:54:22.786Z,100377.00
2023-05-10T16:56:50.551Z,100376.47
2023-05-10T16:59:18.587Z,100383.47
2023-05-10T17:01:47.249Z,100387.75
2023-05-10T17:04:17.772Z,100387.75
2023-05-10T17:06:45.684Z,100383.47
2023-05-10T17:09:14.192Z,100390.44
2023-05-10T17:11:42.464Z,100393.66
2023-05-10T17:14:10.270Z,100394.47
2023-05-10T17:16:38.832Z,100395.03
2023-05-10T17:19:06.954Z,100401.44
2023-05-10T17:21:36.180Z,100397.13
2023-05-10T17:24:04.487Z,100390.47
2023-05-10T17:26:32.358Z,100395.84
2023-05-10T17:29:00.151Z,100401.72
2023-05-10T17:31:28.915Z,100394.22
2023-05-10T17:33:56.736Z,100392.34
2023-05-10T17:36:24.545Z,100390.47
2023-05-10T17:38:54.538Z,100399.06
2023-05-10T17:41:23.249Z,100386.75
2023-05-10T17:43:51.112Z,100389.94
2023-05-10T17:46:19.246Z,100390.78
2023-05-10T17:48:47.264Z,100395.31
2023-05-10T17:51:15.325Z,100392.91
2023-05-10T17:53:43.555Z,100392.63
2023-05-10T17:56:12.729Z,100389.94
2023-05-10T17:58:40.538Z,100391.28
2023-05-10T18:01:09.005Z,100391.81
2023-05-10T18:03:36.815Z,100395.31
2023-05-10T18:06:05.115Z,100390.47
2023-05-10T18:08:33.659Z,100396.91
2023-05-10T18:11:01.432Z,100405.16
2023-05-10T18:13:30.583Z,100400.06
2023-05-10T18:15:59.018Z,100404.09
2023-05-10T18:18:26.987Z,100411.81
2023-05-10T18:20:57.536Z,100411.81
2023-05-10T18:23:26.924Z,100406.13
2023-05-10T18:25:54.706Z,100411.75
2023-05-10T18:28:22.471Z,100410.94
2023-05-10T18:30:52.720Z,100399.06
2023-05-10T18:33:20.504Z,100419.72
2023-05-10T18:35:48.376Z,100419.16
2023-05-10T18:38:16.781Z,100418.31
2023-05-10T18:40:44.577Z,100419.69
2023-05-10T18:43:12.458Z,100422.59
2023-05-10T18:45:40.537Z,100423.41
2023-05-10T18:48:09.692Z,100426.91
2023-05-10T18:50:37.954Z,100423.41
2023-05-10T18:53:06.448Z,100427.72
2023-05-10T18:55:34.365Z,100424.22
2023-05-10T18:58:02.125Z,100423.41
2023-05-10T19:00:30.356Z,100425.84
2023-05-10T19:02:58.210Z,100432.25
2023-05-10T19:05:30.665Z,100435.72
2023-05-10T19:07:58.545Z,100436.81
2023-05-10T19:10:26.314Z,100434.13
2023-05-10T19:12:54.706Z,100439.69
2023-05-10T19:15:22.629Z,100438.91
2023-05-10T19:17:51.645Z,100430.56
2023-05-10T19:20:20.701Z,100436.16
2023-05-10T19:23:08.150Z,100445.81
2023-05-10T19:25:39.651Z,100447.13
2023-05-10T19:28:07.945Z,100453.78
2023-05-10T19:30:36.230Z,100459.66
2023-05-10T19:33:04.692Z,100456.41
2023-05-10T19:35:32.507Z,100467.59
2023-05-10T19:38:01.751Z,100468.66
2023-05-10T19:40:30.087Z,100473.41
2023-05-10T19:42:58.219Z,100473.94
2023-05-10T19:45:26.766Z,100478.44
2023-05-10T19:47:54.996Z,100479.75
2023-05-10T19:50:22.822Z,100487.22
2023-05-10T19:52:50.815Z,100484.00
2023-05-10T19:55:29.670Z,100497.34
2023-05-10T19:57:57.624Z,100502.66
2023-05-10T20:00:27.221Z,100495.69
2023-05-10T20:02:55.315Z,100496.81
2023-05-10T20:05:23.250Z,100497.28
2023-05-10T20:07:51.542Z,100508.47
2023-05-10T20:10:19.872Z,100502.03
2023-05-10T20:12:51.345Z,100494.75
2023-05-10T20:15:20.703Z,100500.91
2023-05-10T20:17:50.957Z,100506.50
2023-05-10T20:20:19.990Z,100509.41
2023-05-10T20:22:48.571Z,100499.75
2023-05-10T20:25:18.928Z,100512.06
2023-05-10T20:27:46.792Z,100507.22
2023-05-10T20:30:18.080Z,100512.56
2023-05-10T20:32:46.102Z,100513.59
2023-05-10T20:35:13.884Z,100512.81
2023-05-10T20:37:41.873Z,100510.94
2023-05-10T20:40:10.989Z,100507.72
2023-05-10T20:42:38.806Z,100511.69
2023-05-10T20:45:07.920Z,100518.06
2023-05-10T20:47:37.299Z,100517.06
2023-05-10T20:50:05.349Z,100513.06
2023-05-10T20:52:33.333Z,100506.09
2023-05-10T20:55:01.160Z,100511.94
2023-05-10T20:57:28.922Z,100510.31
2023-05-10T20:59:57.792Z,100503.34
2023-05-10T21:02:25.942Z,100507.09
2023-05-10T21:04:57.795Z,100504.41
2023-05-10T21:07:26.374Z,100502.22
2023-05-10T21:09:54.183Z,100510.25
2023-05-10T21:12:21.954Z,100501.16
2023-05-10T21:14:49.973Z,100491.78
2023-05-10T21:17:20.008Z,100499.00
2023-05-10T21:19:48.036Z,100500.03
2023-05-10T21:22:17.980Z,100499.00
2023-05-10T21:24:45.833Z,100504.81
2023-05-10T21:27:13.704Z,100505.28
2023-05-10T21:29:41.527Z,100505.28
2023-05-10T21:32:09.719Z,100504.50
2023-05-10T21:34:37.680Z,100505.56
2023-05-10T21:37:06.041Z,100508.47
2023-05-10T21:39:35.209Z,100511.16
2023-05-10T21:42:03.861Z,100507.66
2023-05-10T21:44:32.583Z,100500.94
2023-05-10T21:47:00.344Z,100499.88
2023-05-10T21:49:28.307Z,100500.13
2023-05-10T21:51:56.417Z,100493.97
2023-05-10T21:54:24.170Z,100495.03
2023-05-10T21:56:53.517Z,100496.09
2023-05-10T21:59:22.574Z,100496.31
2023-05-10T22:01:50.497Z,100497.13
2023-05-10T22:04:18.345Z,100492.84
2023-05-10T22:06:46.675Z,100495.50
2023-05-10T22:09:14.437Z,100489.63
2023-05-10T22:11:42.190Z,100494.16
2023-05-10T22:14:11.914Z,100492.50
2023-05-10T22:16:39.712Z,100500.78
2023-05-10T22:19:07.561Z,100500.78
2023-05-10T22:21:35.897Z,100502.91
2023-05-10T22:24:03.664Z,100502.09
2023-05-10T22:26:31.489Z,100498.84
2023-05-10T22:28:59.598Z,100500.69
2023-05-10T22:31:29.103Z,100502.56
2023-05-10T22:33:56.895Z,100500.16
2023-05-10T22:36:25.225Z,100498.50
2023-05-10T22:38:52.966Z,100507.56
2023-05-10T22:41:20.737Z,100505.97
2023-05-10T22:43:49.040Z,100503.75
2023-05-10T22:46:16.866Z,100516.31
2023-05-10T22:48:46.020Z,100519.25
2023-05-10T22:51:14.207Z,100516.22
2023-05-10T22:53:42.613Z,100512.19
2023-05-10T22:56:10.964Z,100513.69
2023-05-10T22:58:39.234Z,100515.22
2023-05-10T23:01:07.149Z,100517.59
2023-05-10T23:03:35.025Z,100513.53
2023-05-10T23:06:05.059Z,100519.84
2023-05-10T23:08:32.853Z,100519.75
2023-05-10T23:11:00.716Z,100517.53
2023-05-10T23:13:28.945Z,100517.53
2023-05-10T23:15:57.341Z,100525.00
2023-05-10T23:18:25.158Z,100519.06
2023-05-10T23:20:54.348Z,100520.94
2023-05-10T23:23:23.768Z,100519.31
2023-05-10T23:25:51.748Z,100522.78
2023-05-10T23:28:20.407Z,100504.50
2023-05-10T23:30:48.182Z,100516.31
2023-05-10T23:33:15.962Z,100518.97
2023-05-10T23:35:44.462Z,100532.56
2023-05-10T23:38:12.277Z,100517.00
2023-05-10T23:40:41.495Z,100517.59
2023-05-10T23:43:09.909Z,100526.41
2023-05-10T23:45:37.711Z,100517.00
2023-05-10T23:48:06.156Z,100523.19
2023-05-10T23:50:34.453Z,100516.22
2023-05-10T23:53:02.235Z,100522.34
2023-05-10T23:55:29.997Z,100523.19
2023-05-10T23:57:59.411Z,100523.75
